DLH4213 EDDM-EDDG
Flight info
| Callsign | DLH4213 |
|---|---|
| Flight time | 0h 50m |
| Altitude | 32000 |
| Route | INPUD3Q/08L INPUD Y102 TESDU DCT AMETU T852 EKSAK/N0357F260 T852 KULIX T842 ADEMI M170 HMM |
| Aircraft | A20N/M-SDE2E3FGHIRWXY/LB1 |
Departure
| Time | 2026-05-01 10:29 |
|---|---|
| Airport | Munich Airport (EDDM) |
Arrival
| Time | 2026-05-01 11:19 |
|---|---|
| Airport | Münster Osnabrück Airport (EDDG) |
| Time | Latitude | Longitude | Altitude | Speed | Heading |
|---|---|---|---|---|---|
| 2026-05-01 10:05 | 48.35635 | 11.79267 | 1470 ft | 0 kts | 263° |
| 2026-05-01 10:15 | 48.35636 | 11.79277 | 1470 ft | 3 kts | 263° |
| 2026-05-01 10:15 | 48.35638 | 11.79305 | 1468 ft | 3 kts | 263° |
| 2026-05-01 10:16 | 48.35641 | 11.79333 | 1465 ft | 3 kts | 263° |
| 2026-05-01 10:16 | 48.35643 | 11.79361 | 1462 ft | 3 kts | 263° |
| 2026-05-01 10:16 | 48.35633 | 11.79406 | 1459 ft | 2 kts | 348° |
| 2026-05-01 10:17 | 48.35631 | 11.79407 | 1460 ft | 0 kts | 357° |
| 2026-05-01 10:20 | 48.35621 | 11.79408 | 1461 ft | 2 kts | 353° |
| 2026-05-01 10:20 | 48.35614 | 11.79409 | 1460 ft | 0 kts | 353° |
| 2026-05-01 10:20 | 48.35614 | 11.79410 | 1460 ft | 0 kts | 353° |
| 2026-05-01 10:21 | 48.35617 | 11.79409 | 1460 ft | 2 kts | 353° |
| 2026-05-01 10:21 | 48.35790 | 11.79399 | 1462 ft | 6 kts | 354° |
| 2026-05-01 10:21 | 48.35814 | 11.79395 | 1464 ft | 4 kts | 353° |
| 2026-05-01 10:22 | 48.35905 | 11.79368 | 1467 ft | 11 kts | 334° |
| 2026-05-01 10:22 | 48.36079 | 11.79309 | 1459 ft | 7 kts | 309° |
| 2026-05-01 10:23 | 48.36074 | 11.79087 | 1466 ft | 38 kts | 263° |
| 2026-05-01 10:23 | 48.36013 | 11.78293 | 1470 ft | 28 kts | 264° |
| 2026-05-01 10:23 | 48.35992 | 11.78031 | 1466 ft | 23 kts | 264° |
| 2026-05-01 10:24 | 48.35956 | 11.77556 | 1470 ft | 24 kts | 264° |
| 2026-05-01 10:24 | 48.35926 | 11.77138 | 1468 ft | 14 kts | 268° |
| 2026-05-01 10:25 | 48.36047 | 11.76970 | 1466 ft | 15 kts | 351° |
| 2026-05-01 10:25 | 48.36149 | 11.76951 | 1467 ft | 0 kts | 355° |
| 2026-05-01 10:26 | 48.36218 | 11.76942 | 1466 ft | 20 kts | 358° |
| 2026-05-01 10:26 | 48.36307 | 11.77125 | 1471 ft | 18 kts | 83° |
| 2026-05-01 10:27 | 48.36308 | 11.77145 | 1468 ft | 0 kts | 87° |
| 2026-05-01 10:27 | 48.36308 | 11.77152 | 1469 ft | 0 kts | 87° |
| 2026-05-01 10:28 | 48.36314 | 11.77321 | 1466 ft | 52 kts | 85° |
| 2026-05-01 10:28 | 48.36392 | 11.78400 | 1466 ft | 153 kts | 84° |
| 2026-05-01 10:29 | 48.36663 | 11.82375 | 3247 ft | 187 kts | 85° |
| 2026-05-01 10:29 | 48.36774 | 11.84108 | 3563 ft | 152 kts | 82° |
| 2026-05-01 10:30 | 48.37696 | 11.86725 | 3299 ft | 139 kts | 45° |
| 2026-05-01 10:30 | 48.39605 | 11.87570 | 3392 ft | 183 kts | 0° |
| 2026-05-01 10:31 | 48.42073 | 11.86020 | 4643 ft | 218 kts | 323° |
| 2026-05-01 10:31 | 48.44497 | 11.82045 | 5750 ft | 297 kts | 311° |
| 2026-05-01 10:32 | 48.47410 | 11.76806 | 6749 ft | 352 kts | 311° |
| 2026-05-01 10:32 | 48.49047 | 11.73881 | 6948 ft | 376 kts | 312° |
| 2026-05-01 10:32 | 48.52499 | 11.67764 | 6999 ft | 388 kts | 311° |
| 2026-05-01 10:33 | 48.56070 | 11.61545 | 8239 ft | 393 kts | 317° |
| 2026-05-01 10:33 | 48.60756 | 11.57513 | 9610 ft | 391 kts | 341° |
| 2026-05-01 10:34 | 48.63306 | 11.56047 | 10258 ft | 393 kts | 342° |
| 2026-05-01 10:34 | 48.65876 | 11.54588 | 10857 ft | 396 kts | 342° |
| 2026-05-01 10:34 | 48.68461 | 11.53115 | 11435 ft | 398 kts | 342° |
| 2026-05-01 10:35 | 48.73675 | 11.50126 | 12672 ft | 404 kts | 342° |
| 2026-05-01 10:35 | 48.76312 | 11.48601 | 13279 ft | 407 kts | 341° |
| 2026-05-01 10:35 | 48.78965 | 11.47061 | 13867 ft | 410 kts | 341° |
| 2026-05-01 10:35 | 48.81638 | 11.45506 | 14393 ft | 413 kts | 341° |
| 2026-05-01 10:36 | 48.87038 | 11.42357 | 15217 ft | 420 kts | 341° |
| 2026-05-01 10:36 | 48.89773 | 11.40762 | 15630 ft | 423 kts | 341° |
| 2026-05-01 10:36 | 48.92523 | 11.39157 | 16054 ft | 425 kts | 341° |
| 2026-05-01 10:37 | 48.95291 | 11.37539 | 16498 ft | 427 kts | 342° |
| 2026-05-01 10:37 | 49.00867 | 11.34275 | 17324 ft | 431 kts | 342° |
| 2026-05-01 10:37 | 49.03672 | 11.32630 | 17718 ft | 434 kts | 342° |
| 2026-05-01 10:38 | 49.06506 | 11.30963 | 18401 ft | 439 kts | 342° |
| 2026-05-01 10:38 | 49.09366 | 11.29282 | 19263 ft | 442 kts | 342° |
| 2026-05-01 10:38 | 49.12241 | 11.27590 | 20091 ft | 445 kts | 342° |
| 2026-05-01 10:38 | 49.15142 | 11.25879 | 20917 ft | 448 kts | 342° |
| 2026-05-01 10:39 | 49.18055 | 11.24158 | 21587 ft | 450 kts | 341° |
| 2026-05-01 10:39 | 49.20984 | 11.22427 | 21923 ft | 451 kts | 342° |
| 2026-05-01 10:39 | 49.23923 | 11.20724 | 21992 ft | 452 kts | 342° |
| 2026-05-01 10:39 | 49.26874 | 11.19047 | 21990 ft | 454 kts | 342° |
| 2026-05-01 10:40 | 49.29838 | 11.17376 | 21982 ft | 454 kts | 342° |
| 2026-05-01 10:40 | 49.32813 | 11.15700 | 21988 ft | 456 kts | 342° |
| 2026-05-01 10:40 | 49.35795 | 11.14018 | 21993 ft | 457 kts | 342° |
| 2026-05-01 10:40 | 49.38771 | 11.12333 | 21992 ft | 457 kts | 342° |
| 2026-05-01 10:41 | 49.41754 | 11.10640 | 21994 ft | 457 kts | 342° |
| 2026-05-01 10:41 | 49.44735 | 11.08945 | 21991 ft | 457 kts | 342° |
| 2026-05-01 10:41 | 49.50657 | 11.05558 | 21993 ft | 457 kts | 341° |
| 2026-05-01 10:42 | 49.53564 | 11.03369 | 21994 ft | 460 kts | 334° |
| 2026-05-01 10:42 | 49.56323 | 11.01001 | 21992 ft | 460 kts | 332° |
| 2026-05-01 10:42 | 49.59078 | 10.98494 | 21992 ft | 461 kts | 331° |
| 2026-05-01 10:42 | 49.61816 | 10.95922 | 21991 ft | 461 kts | 331° |
| 2026-05-01 10:43 | 49.64546 | 10.93324 | 21991 ft | 461 kts | 330° |
| 2026-05-01 10:43 | 49.67310 | 10.90683 | 21991 ft | 461 kts | 330° |
| 2026-05-01 10:43 | 49.69996 | 10.88118 | 21988 ft | 461 kts | 331° |
| 2026-05-01 10:43 | 49.72728 | 10.85515 | 21987 ft | 462 kts | 330° |
| 2026-05-01 10:44 | 49.75467 | 10.82909 | 21989 ft | 462 kts | 330° |
| 2026-05-01 10:44 | 49.78211 | 10.80302 | 21990 ft | 463 kts | 330° |
| 2026-05-01 10:44 | 49.80949 | 10.77702 | 21987 ft | 462 kts | 330° |
| 2026-05-01 10:44 | 49.83692 | 10.75096 | 21987 ft | 463 kts | 330° |
| 2026-05-01 10:45 | 49.86434 | 10.72488 | 21994 ft | 463 kts | 330° |
| 2026-05-01 10:45 | 49.89177 | 10.69872 | 21992 ft | 462 kts | 330° |
| 2026-05-01 10:45 | 49.91916 | 10.67256 | 21993 ft | 462 kts | 330° |
| 2026-05-01 10:45 | 49.94656 | 10.64636 | 21992 ft | 462 kts | 330° |
| 2026-05-01 10:46 | 49.97396 | 10.62013 | 21996 ft | 462 kts | 330° |
| 2026-05-01 10:46 | 50.00132 | 10.59388 | 21996 ft | 463 kts | 330° |
| 2026-05-01 10:46 | 50.02867 | 10.56760 | 21995 ft | 462 kts | 330° |
| 2026-05-01 10:46 | 50.05606 | 10.54126 | 21986 ft | 463 kts | 330° |
| 2026-05-01 10:47 | 50.08348 | 10.51486 | 21998 ft | 464 kts | 330° |
| 2026-05-01 10:47 | 50.11088 | 10.48842 | 21996 ft | 464 kts | 330° |
| 2026-05-01 10:47 | 50.13830 | 10.46192 | 21999 ft | 464 kts | 330° |
| 2026-05-01 10:47 | 50.16573 | 10.43538 | 21996 ft | 464 kts | 330° |
| 2026-05-01 10:48 | 50.19209 | 10.40620 | 21990 ft | 466 kts | 322° |
| 2026-05-01 10:48 | 50.21534 | 10.37078 | 21994 ft | 469 kts | 313° |
| 2026-05-01 10:48 | 50.23595 | 10.33138 | 21997 ft | 469 kts | 309° |
| 2026-05-01 10:48 | 50.25545 | 10.29038 | 21998 ft | 470 kts | 307° |
| 2026-05-01 10:49 | 50.27424 | 10.24865 | 21995 ft | 470 kts | 306° |
| 2026-05-01 10:49 | 50.29276 | 10.20648 | 21995 ft | 470 kts | 306° |
| 2026-05-01 10:49 | 50.31119 | 10.16421 | 21986 ft | 470 kts | 306° |
| 2026-05-01 10:49 | 50.32969 | 10.12190 | 21995 ft | 471 kts | 306° |
| 2026-05-01 10:50 | 50.34822 | 10.07971 | 21991 ft | 470 kts | 306° |
| 2026-05-01 10:50 | 50.36682 | 10.03754 | 21995 ft | 471 kts | 307° |
| 2026-05-01 10:50 | 50.38549 | 9.99533 | 21988 ft | 471 kts | 306° |
| 2026-05-01 10:50 | 50.40417 | 9.95313 | 21988 ft | 470 kts | 306° |
| 2026-05-01 10:51 | 50.42279 | 9.91100 | 21987 ft | 470 kts | 306° |
| 2026-05-01 10:51 | 50.44141 | 9.86881 | 21988 ft | 470 kts | 306° |
| 2026-05-01 10:51 | 50.46000 | 9.82659 | 21981 ft | 470 kts | 306° |
| 2026-05-01 10:51 | 50.47859 | 9.78431 | 21984 ft | 470 kts | 306° |
| 2026-05-01 10:52 | 50.49715 | 9.74205 | 21983 ft | 470 kts | 306° |
| 2026-05-01 10:52 | 50.51568 | 9.69977 | 21986 ft | 470 kts | 306° |
| 2026-05-01 10:52 | 50.53420 | 9.65745 | 21977 ft | 471 kts | 306° |
| 2026-05-01 10:52 | 50.55274 | 9.61502 | 21977 ft | 471 kts | 306° |
| 2026-05-01 10:53 | 50.57130 | 9.57248 | 21978 ft | 471 kts | 306° |
| 2026-05-01 10:53 | 50.58982 | 9.52997 | 21982 ft | 471 kts | 306° |
| 2026-05-01 10:53 | 50.60209 | 9.50176 | 21972 ft | 471 kts | 306° |
| 2026-05-01 10:53 | 50.62055 | 9.45925 | 21971 ft | 471 kts | 306° |
| 2026-05-01 10:54 | 50.63902 | 9.41663 | 21973 ft | 470 kts | 306° |
| 2026-05-01 10:54 | 50.65742 | 9.37412 | 21971 ft | 470 kts | 306° |
| 2026-05-01 10:54 | 50.67587 | 9.33143 | 21966 ft | 471 kts | 305° |
| 2026-05-01 10:54 | 50.69427 | 9.28878 | 21971 ft | 470 kts | 305° |
| 2026-05-01 10:55 | 50.71267 | 9.24605 | 21972 ft | 471 kts | 305° |
| 2026-05-01 10:55 | 50.73098 | 9.20348 | 21972 ft | 471 kts | 305° |
| 2026-05-01 10:55 | 50.74944 | 9.16047 | 21971 ft | 471 kts | 305° |
| 2026-05-01 10:55 | 50.76779 | 9.11761 | 21973 ft | 471 kts | 305° |
| 2026-05-01 10:56 | 50.78616 | 9.07469 | 21971 ft | 471 kts | 305° |
| 2026-05-01 10:56 | 50.80453 | 9.03170 | 21973 ft | 471 kts | 305° |
| 2026-05-01 10:56 | 50.82285 | 8.98877 | 21976 ft | 471 kts | 305° |
| 2026-05-01 10:56 | 50.84161 | 8.94635 | 21976 ft | 471 kts | 307° |
| 2026-05-01 10:57 | 50.86142 | 8.90518 | 21975 ft | 470 kts | 309° |
| 2026-05-01 10:57 | 50.88176 | 8.86472 | 21977 ft | 469 kts | 310° |
| 2026-05-01 10:57 | 50.90227 | 8.82457 | 21977 ft | 469 kts | 310° |
| 2026-05-01 10:57 | 50.92281 | 8.78438 | 21978 ft | 470 kts | 310° |
| 2026-05-01 10:58 | 50.94333 | 8.74393 | 21974 ft | 470 kts | 310° |
| 2026-05-01 10:58 | 50.96374 | 8.70337 | 21975 ft | 470 kts | 310° |
| 2026-05-01 10:58 | 50.98409 | 8.66267 | 21973 ft | 470 kts | 309° |
| 2026-05-01 10:58 | 51.00461 | 8.62318 | 21974 ft | 470 kts | 314° |
| 2026-05-01 10:59 | 51.02894 | 8.58784 | 21973 ft | 468 kts | 323° |
| 2026-05-01 10:59 | 51.05461 | 8.55723 | 21975 ft | 468 kts | 326° |
| 2026-05-01 10:59 | 51.08137 | 8.52786 | 21965 ft | 468 kts | 328° |
| 2026-05-01 10:59 | 51.10863 | 8.49939 | 21973 ft | 469 kts | 328° |
| 2026-05-01 11:00 | 51.13596 | 8.47138 | 21971 ft | 468 kts | 329° |
| 2026-05-01 11:00 | 51.16343 | 8.44333 | 21975 ft | 469 kts | 329° |
| 2026-05-01 11:00 | 51.19085 | 8.41522 | 21973 ft | 469 kts | 329° |
| 2026-05-01 11:00 | 51.21829 | 8.38686 | 21970 ft | 470 kts | 329° |
| 2026-05-01 11:01 | 51.24572 | 8.35833 | 21967 ft | 471 kts | 328° |
| 2026-05-01 11:01 | 51.27306 | 8.32976 | 21963 ft | 470 kts | 329° |
| 2026-05-01 11:01 | 51.30038 | 8.30111 | 21964 ft | 470 kts | 328° |
| 2026-05-01 11:01 | 51.32735 | 8.27187 | 21959 ft | 469 kts | 324° |
| 2026-05-01 11:02 | 51.35119 | 8.23581 | 21952 ft | 473 kts | 312° |
| 2026-05-01 11:02 | 51.37062 | 8.19387 | 21726 ft | 467 kts | 305° |
| 2026-05-01 11:02 | 51.38827 | 8.15003 | 21105 ft | 471 kts | 303° |
| 2026-05-01 11:02 | 51.40510 | 8.10500 | 20357 ft | 470 kts | 301° |
| 2026-05-01 11:03 | 51.42131 | 8.05987 | 19631 ft | 465 kts | 300° |
| 2026-05-01 11:03 | 51.43729 | 8.01508 | 18917 ft | 461 kts | 300° |
| 2026-05-01 11:03 | 51.45322 | 7.97077 | 18155 ft | 458 kts | 301° |
| 2026-05-01 11:03 | 51.47171 | 7.92954 | 17365 ft | 455 kts | 312° |
| 2026-05-01 11:04 | 51.49496 | 7.89557 | 16595 ft | 449 kts | 325° |
| 2026-05-01 11:04 | 51.52219 | 7.87214 | 15846 ft | 442 kts | 340° |
| 2026-05-01 11:04 | 51.55108 | 7.85607 | 15112 ft | 437 kts | 344° |
| 2026-05-01 11:04 | 51.57999 | 7.84188 | 14408 ft | 432 kts | 345° |
| 2026-05-01 11:05 | 51.60867 | 7.82814 | 13650 ft | 429 kts | 345° |
| 2026-05-01 11:05 | 51.63716 | 7.81450 | 12875 ft | 425 kts | 345° |
| 2026-05-01 11:05 | 51.66516 | 7.80105 | 12111 ft | 413 kts | 345° |
| 2026-05-01 11:05 | 51.69226 | 7.78798 | 11369 ft | 400 kts | 345° |
| 2026-05-01 11:06 | 51.71853 | 7.77528 | 10643 ft | 390 kts | 345° |
| 2026-05-01 11:06 | 51.74421 | 7.76286 | 9905 ft | 381 kts | 345° |
| 2026-05-01 11:06 | 51.76926 | 7.75076 | 9131 ft | 371 kts | 345° |
| 2026-05-01 11:07 | 51.81732 | 7.72520 | 7625 ft | 358 kts | 336° |
| 2026-05-01 11:07 | 51.83845 | 7.70476 | 6901 ft | 352 kts | 322° |
| 2026-05-01 11:07 | 51.85571 | 7.67716 | 6141 ft | 346 kts | 307° |
| 2026-05-01 11:07 | 51.86809 | 7.64431 | 5443 ft | 338 kts | 292° |
| 2026-05-01 11:08 | 51.87599 | 7.60944 | 5043 ft | 321 kts | 285° |
| 2026-05-01 11:08 | 51.88234 | 7.57606 | 4929 ft | 299 kts | 284° |
| 2026-05-01 11:08 | 51.89347 | 7.51642 | 4929 ft | 257 kts | 284° |
| 2026-05-01 11:09 | 51.89842 | 7.48964 | 4930 ft | 240 kts | 283° |
| 2026-05-01 11:09 | 51.90307 | 7.46465 | 4923 ft | 232 kts | 283° |
| 2026-05-01 11:09 | 51.90769 | 7.43972 | 4940 ft | 231 kts | 283° |
| 2026-05-01 11:10 | 51.91682 | 7.39082 | 4952 ft | 221 kts | 283° |
| 2026-05-01 11:10 | 51.92124 | 7.36700 | 4929 ft | 221 kts | 283° |
| 2026-05-01 11:10 | 51.92565 | 7.34314 | 4941 ft | 221 kts | 283° |
| 2026-05-01 11:10 | 51.93012 | 7.31923 | 4938 ft | 221 kts | 283° |
| 2026-05-01 11:11 | 51.93553 | 7.29600 | 4925 ft | 222 kts | 292° |
| 2026-05-01 11:11 | 51.94400 | 7.27511 | 4952 ft | 223 kts | 309° |
| 2026-05-01 11:11 | 51.95572 | 7.25861 | 4933 ft | 225 kts | 327° |
| 2026-05-01 11:11 | 51.96987 | 7.24803 | 4930 ft | 224 kts | 345° |
| 2026-05-01 11:12 | 51.98519 | 7.24435 | 4951 ft | 222 kts | 2° |
| 2026-05-01 11:12 | 52.00030 | 7.24752 | 4928 ft | 218 kts | 19° |
| 2026-05-01 11:12 | 52.01405 | 7.25700 | 4927 ft | 212 kts | 36° |
| 2026-05-01 11:12 | 52.02546 | 7.27159 | 4930 ft | 207 kts | 51° |
| 2026-05-01 11:13 | 52.03415 | 7.28994 | 4937 ft | 203 kts | 63° |
| 2026-05-01 11:13 | 52.04128 | 7.30933 | 4704 ft | 195 kts | 66° |
| 2026-05-01 11:13 | 52.04776 | 7.32795 | 4551 ft | 184 kts | 67° |
| 2026-05-01 11:13 | 52.05390 | 7.34563 | 4419 ft | 174 kts | 67° |
| 2026-05-01 11:14 | 52.05972 | 7.36222 | 4160 ft | 166 kts | 68° |
| 2026-05-01 11:14 | 52.06542 | 7.37854 | 3731 ft | 169 kts | 67° |
| 2026-05-01 11:14 | 52.07141 | 7.39565 | 3178 ft | 175 kts | 67° |
| 2026-05-01 11:14 | 52.07643 | 7.41254 | 2948 ft | 156 kts | 75° |
| 2026-05-01 11:15 | 52.08012 | 7.42861 | 2826 ft | 150 kts | 77° |
| 2026-05-01 11:15 | 52.08354 | 7.44455 | 2512 ft | 150 kts | 77° |
| 2026-05-01 11:15 | 52.08693 | 7.46064 | 2472 ft | 150 kts | 76° |
| 2026-05-01 11:15 | 52.09037 | 7.47649 | 2392 ft | 147 kts | 76° |
| 2026-05-01 11:16 | 52.09371 | 7.49219 | 2257 ft | 146 kts | 75° |
| 2026-05-01 11:16 | 52.09705 | 7.50784 | 2073 ft | 147 kts | 74° |
| 2026-05-01 11:16 | 52.10038 | 7.52345 | 1848 ft | 146 kts | 76° |
| 2026-05-01 11:16 | 52.10362 | 7.53911 | 1665 ft | 146 kts | 76° |
| 2026-05-01 11:17 | 52.10693 | 7.55453 | 1460 ft | 144 kts | 73° |
| 2026-05-01 11:17 | 52.11025 | 7.56993 | 1444 ft | 144 kts | 76° |
| 2026-05-01 11:17 | 52.11359 | 7.58535 | 1366 ft | 145 kts | 73° |
| 2026-05-01 11:17 | 52.11717 | 7.60070 | 1080 ft | 145 kts | 73° |
| 2026-05-01 11:18 | 52.12058 | 7.61605 | 825 ft | 146 kts | 76° |
| 2026-05-01 11:18 | 52.12373 | 7.63225 | 623 ft | 154 kts | 77° |
| 2026-05-01 11:18 | 52.12684 | 7.64841 | 459 ft | 151 kts | 73° |
| 2026-05-01 11:18 | 52.13039 | 7.66440 | 273 ft | 149 kts | 76° |
| 2026-05-01 11:19 | 52.13370 | 7.68003 | 172 ft | 136 kts | 76° |
| 2026-05-01 11:19 | 52.13591 | 7.69093 | 173 ft | 69 kts | 70° |
| 2026-05-01 11:19 | 52.13732 | 7.69768 | 171 ft | 53 kts | 73° |
| 2026-05-01 11:19 | 52.13745 | 7.70000 | 171 ft | 11 kts | 140° |
| 2026-05-01 11:20 | 52.13688 | 7.70042 | 167 ft | 26 kts | 160° |
| 2026-05-01 11:20 | 52.13642 | 7.70055 | 171 ft | 9 kts | 210° |
| 2026-05-01 11:20 | 52.13594 | 7.69907 | 168 ft | 8 kts | 249° |
| 2026-05-01 11:20 | 52.13567 | 7.69763 | 169 ft | 22 kts | 256° |
| 2026-05-01 11:21 | 52.13521 | 7.69554 | 170 ft | 22 kts | 254° |
| 2026-05-01 11:21 | 52.13455 | 7.69251 | 169 ft | 32 kts | 250° |
| 2026-05-01 11:21 | 52.13376 | 7.68880 | 170 ft | 36 kts | 251° |
| 2026-05-01 11:21 | 52.13293 | 7.68489 | 173 ft | 37 kts | 251° |
| 2026-05-01 11:22 | 52.13196 | 7.68048 | 170 ft | 50 kts | 250° |
| 2026-05-01 11:22 | 52.13075 | 7.67504 | 165 ft | 52 kts | 252° |
| 2026-05-01 11:22 | 52.13014 | 7.67230 | 171 ft | 0 kts | 235° |
| 2026-05-01 11:22 | 52.12997 | 7.67156 | 171 ft | 6 kts | 288° |
| 2026-05-01 11:23 | 52.13015 | 7.67188 | 171 ft | 13 kts | 69° |
| 2026-05-01 11:23 | 52.13048 | 7.67357 | 165 ft | 20 kts | 71° |
| 2026-05-01 11:23 | 52.13105 | 7.67625 | 164 ft | 30 kts | 70° |
| 2026-05-01 11:23 | 52.13174 | 7.67949 | 169 ft | 30 kts | 70° |
| 2026-05-01 11:24 | 52.13229 | 7.68212 | 173 ft | 20 kts | 71° |
| 2026-05-01 11:24 | 52.13289 | 7.68482 | 172 ft | 32 kts | 71° |
| 2026-05-01 11:24 | 52.13219 | 7.68921 | 170 ft | 23 kts | 161° |
| 2026-05-01 11:25 | 52.13159 | 7.69034 | 170 ft | 7 kts | 92° |
| 2026-05-01 11:25 | 52.13182 | 7.69288 | 171 ft | 10 kts | 127° |
| 2026-05-01 11:25 | 52.13153 | 7.69327 | 171 ft | 0 kts | 146° |